createdAt,value
2023-05-10T00:00:03.770Z,984.64
2023-05-10T00:01:03.794Z,984.63
2023-05-10T00:02:03.833Z,984.65
2023-05-10T00:03:03.847Z,984.64
2023-05-10T00:04:03.780Z,984.65
2023-05-10T00:05:03.757Z,984.65
2023-05-10T00:06:03.774Z,984.62
2023-05-10T00:07:03.739Z,984.61
2023-05-10T00:08:03.761Z,984.60
2023-05-10T00:09:03.730Z,984.59
2023-05-10T00:10:03.746Z,984.58
2023-05-10T00:11:03.695Z,984.58
2023-05-10T00:12:03.692Z,984.58
2023-05-10T00:13:03.732Z,984.57
2023-05-10T00:14:03.699Z,984.55
2023-05-10T00:15:03.655Z,984.53
2023-05-10T00:16:03.732Z,984.54
2023-05-10T00:17:03.647Z,984.55
2023-05-10T00:18:03.648Z,984.55
2023-05-10T00:19:03.612Z,984.52
2023-05-10T00:20:03.605Z,984.48
2023-05-10T00:21:03.605Z,984.50
2023-05-10T00:22:03.578Z,984.44
2023-05-10T00:23:03.566Z,984.45
2023-05-10T00:24:04.002Z,984.48
2023-05-10T00:25:03.553Z,984.48
2023-05-10T00:26:03.567Z,984.46
2023-05-10T00:27:03.534Z,984.45
2023-05-10T00:28:03.532Z,984.40
2023-05-10T00:29:03.517Z,984.41
2023-05-10T00:30:03.509Z,984.38
2023-05-10T00:31:03.504Z,984.36
2023-05-10T00:32:03.552Z,984.36
2023-05-10T00:33:03.552Z,984.35
2023-05-10T00:34:03.481Z,984.32
2023-05-10T00:35:03.471Z,984.32
2023-05-10T00:36:03.468Z,984.30
2023-05-10T00:37:03.498Z,984.28
2023-05-10T00:38:03.475Z,984.29
2023-05-10T00:39:03.434Z,984.31
2023-05-10T00:40:03.445Z,984.26
2023-05-10T00:41:03.415Z,984.26
2023-05-10T00:42:03.421Z,984.23
2023-05-10T00:43:03.625Z,984.25
2023-05-10T00:44:03.404Z,984.23
2023-05-10T00:45:03.411Z,984.21
2023-05-10T00:46:03.468Z,984.20
2023-05-10T00:47:03.385Z,984.18
2023-05-10T00:48:03.499Z,984.23
2023-05-10T00:49:03.373Z,984.17
2023-05-10T00:50:03.358Z,984.16
2023-05-10T00:51:03.339Z,984.15
2023-05-10T00:52:03.329Z,984.11
2023-05-10T00:53:03.311Z,984.14
2023-05-10T00:54:03.313Z,984.13
2023-05-10T00:55:03.299Z,984.10
2023-05-10T00:56:03.330Z,984.11
2023-05-10T00:57:03.294Z,984.13
2023-05-10T00:58:03.310Z,984.09
2023-05-10T00:59:03.277Z,984.11
2023-05-10T01:00:03.266Z,984.10
2023-05-10T01:01:03.271Z,984.10
2023-05-10T01:02:03.290Z,984.07
2023-05-10T01:03:03.293Z,984.09
2023-05-10T01:04:03.225Z,984.09
2023-05-10T01:05:03.291Z,984.05
2023-05-10T01:06:03.211Z,984.04
2023-05-10T01:07:03.210Z,984.06
2023-05-10T01:08:03.207Z,984.03
2023-05-10T01:09:03.184Z,983.98
2023-05-10T01:10:03.184Z,984.00
2023-05-10T01:11:03.166Z,984.00
2023-05-10T01:12:03.208Z,984.05
2023-05-10T01:13:03.189Z,984.03
2023-05-10T01:14:03.145Z,983.99
2023-05-10T01:15:03.150Z,984.01
2023-05-10T01:16:03.197Z,984.00
2023-05-10T01:17:03.121Z,984.00
2023-05-10T01:18:03.184Z,983.99
2023-05-10T01:19:03.124Z,984.00
2023-05-10T01:20:03.096Z,984.03
2023-05-10T01:21:03.083Z,983.99
2023-05-10T01:22:03.077Z,983.99
2023-05-10T01:23:03.073Z,983.97
2023-05-10T01:24:03.059Z,983.98
2023-05-10T01:25:03.053Z,984.00
2023-05-10T01:26:03.041Z,983.99
2023-05-10T01:27:03.053Z,983.97
2023-05-10T01:28:03.074Z,983.97
2023-05-10T01:29:03.049Z,984.01
2023-05-10T01:30:14.987Z,983.97
2023-05-10T01:31:03.087Z,984.02
2023-05-10T01:32:03.013Z,984.03
2023-05-10T01:33:03.007Z,983.98
2023-05-10T01:34:02.983Z,984.01
2023-05-10T01:35:02.970Z,984.00
2023-05-10T01:36:02.981Z,984.01
2023-05-10T01:37:02.975Z,984.04
2023-05-10T01:38:02.963Z,984.01
2023-05-10T01:39:02.952Z,984.05
2023-05-10T01:40:02.945Z,984.03
2023-05-10T01:41:02.926Z,984.08
2023-05-10T01:42:02.914Z,984.04
2023-05-10T01:43:02.923Z,984.02
2023-05-10T01:44:02.918Z,984.00
2023-05-10T01:45:02.937Z,983.97
2023-05-10T01:46:02.892Z,984.00
2023-05-10T01:47:02.926Z,983.93
2023-05-10T01:48:02.868Z,983.96
2023-05-10T01:49:02.870Z,983.94
2023-05-10T01:50:02.852Z,983.95
2023-05-10T01:51:02.847Z,983.96
2023-05-10T01:52:02.823Z,983.98
2023-05-10T01:53:02.821Z,983.96
2023-05-10T01:54:02.815Z,983.95
2023-05-10T01:55:02.802Z,983.98
2023-05-10T01:56:02.825Z,983.97
2023-05-10T01:57:02.797Z,983.99
2023-05-10T01:58:02.788Z,984.01
2023-05-10T01:59:02.777Z,983.96
2023-05-10T02:00:02.804Z,983.98
2023-05-10T02:01:02.841Z,984.01
2023-05-10T02:02:02.764Z,983.94
2023-05-10T02:03:02.756Z,983.97
2023-05-10T02:04:02.754Z,983.94
2023-05-10T02:05:02.722Z,983.97
2023-05-10T02:06:02.700Z,983.98
2023-05-10T02:07:02.690Z,983.98
2023-05-10T02:08:02.696Z,984.00
2023-05-10T02:09:02.686Z,983.99
2023-05-10T02:10:02.662Z,983.97
2023-05-10T02:11:02.679Z,983.94
2023-05-10T02:12:02.677Z,983.96
2023-05-10T02:13:02.695Z,983.98
2023-05-10T02:14:02.634Z,983.97
2023-05-10T02:15:02.626Z,983.98
2023-05-10T02:16:02.654Z,983.95
2023-05-10T02:17:02.658Z,984.00
2023-05-10T02:18:02.646Z,983.98
2023-05-10T02:19:02.604Z,984.02
2023-05-10T02:20:02.581Z,984.02
2023-05-10T02:21:02.579Z,984.01
2023-05-10T02:22:02.590Z,983.99
2023-05-10T02:23:02.559Z,984.00
2023-05-10T02:24:02.575Z,983.98
2023-05-10T02:25:02.547Z,983.98
2023-05-10T02:26:02.538Z,984.04
2023-05-10T02:27:02.521Z,984.00
2023-05-10T02:28:02.509Z,983.99
2023-05-10T02:29:02.508Z,983.99
2023-05-10T02:30:02.504Z,983.98
2023-05-10T02:31:02.492Z,983.98
2023-05-10T02:32:02.562Z,983.99
2023-05-10T02:33:02.494Z,983.98
2023-05-10T02:34:02.474Z,983.94
2023-05-10T02:35:02.464Z,983.94
2023-05-10T02:36:02.453Z,983.92
2023-05-10T02:37:02.448Z,983.91
2023-05-10T02:38:02.452Z,983.92
2023-05-10T02:39:02.441Z,983.89
2023-05-10T02:40:02.432Z,983.87
2023-05-10T02:41:02.401Z,983.88
2023-05-10T02:42:02.400Z,983.93
2023-05-10T02:43:02.449Z,983.93
2023-05-10T02:44:02.403Z,983.91
2023-05-10T02:45:02.379Z,983.90
2023-05-10T02:46:02.438Z,983.92
2023-05-10T02:47:02.354Z,983.92
2023-05-10T02:48:02.411Z,983.93
2023-05-10T02:49:02.331Z,983.94
2023-05-10T02:50:02.360Z,983.88
2023-05-10T02:51:02.327Z,983.86
2023-05-10T02:52:02.338Z,983.86
2023-05-10T02:53:02.361Z,983.86
2023-05-10T02:54:02.301Z,983.87
2023-05-10T02:55:02.299Z,983.83
2023-05-10T02:56:02.287Z,983.88
2023-05-10T02:57:02.282Z,983.89
2023-05-10T02:58:02.300Z,983.84
2023-05-10T02:59:02.276Z,983.86
2023-05-10T03:00:02.281Z,983.90
2023-05-10T03:01:02.285Z,983.88
2023-05-10T03:02:02.236Z,983.90
2023-05-10T03:03:02.259Z,983.88
2023-05-10T03:04:02.235Z,983.89
2023-05-10T03:05:02.242Z,983.91
2023-05-10T03:06:02.198Z,983.90
2023-05-10T03:07:02.185Z,983.90
2023-05-10T03:08:02.176Z,983.93
2023-05-10T03:09:02.182Z,983.91
2023-05-10T03:10:02.160Z,983.92
2023-05-10T03:11:02.176Z,983.88
2023-05-10T03:12:02.144Z,983.93
2023-05-10T03:13:02.164Z,983.92
2023-05-10T03:14:02.127Z,983.90
2023-05-10T03:15:02.130Z,983.94
2023-05-10T03:16:02.179Z,983.95
2023-05-10T03:17:02.118Z,983.97
2023-05-10T03:18:02.121Z,983.96
2023-05-10T03:19:02.103Z,983.95
2023-05-10T03:20:02.104Z,983.95
2023-05-10T03:21:02.084Z,983.96
2023-05-10T03:22:02.083Z,983.97
2023-05-10T03:23:02.078Z,983.94
2023-05-10T03:24:02.065Z,983.97
2023-05-10T03:25:02.032Z,984.01
2023-05-10T03:26:02.091Z,984.03
2023-05-10T03:27:02.018Z,984.02
2023-05-10T03:28:02.021Z,984.02
2023-05-10T03:29:02.021Z,984.03
2023-05-10T03:30:02.000Z,984.05
2023-05-10T03:31:02.030Z,984.00
2023-05-10T03:32:01.997Z,984.03
2023-05-10T03:33:02.001Z,984.00
2023-05-10T03:34:01.960Z,983.97
2023-05-10T03:35:01.974Z,984.02
2023-05-10T03:36:01.980Z,984.03
2023-05-10T03:37:01.941Z,983.99
2023-05-10T03:38:01.930Z,984.00
2023-05-10T03:39:01.933Z,983.98
2023-05-10T03:40:01.917Z,983.95
2023-05-10T03:41:01.915Z,984.01
2023-05-10T03:42:01.889Z,984.01
2023-05-10T03:43:01.885Z,984.00
2023-05-10T03:44:01.879Z,984.00
2023-05-10T03:45:01.869Z,984.00
2023-05-10T03:46:01.875Z,984.03
2023-05-10T03:47:01.928Z,984.04
2023-05-10T03:48:01.920Z,984.06
2023-05-10T03:49:01.839Z,984.05
2023-05-10T03:50:01.843Z,984.04
2023-05-10T03:51:01.822Z,984.04
2023-05-10T03:52:01.832Z,984.04
2023-05-10T03:53:01.806Z,984.07
2023-05-10T03:54:01.808Z,984.03
2023-05-10T03:55:01.784Z,984.06
2023-05-10T03:56:01.781Z,984.05
2023-05-10T03:57:01.771Z,984.09
2023-05-10T03:58:01.771Z,984.08
2023-05-10T03:59:01.754Z,984.07
2023-05-10T04:00:01.760Z,984.08
2023-05-10T04:01:01.726Z,984.09
2023-05-10T04:02:01.822Z,984.05
2023-05-10T04:03:01.854Z,984.09
2023-05-10T04:04:01.753Z,984.12
2023-05-10T04:05:01.714Z,984.10
2023-05-10T04:06:01.754Z,984.10
2023-05-10T04:07:01.685Z,984.08
2023-05-10T04:08:01.705Z,984.10
2023-05-10T04:09:01.666Z,984.11
2023-05-10T04:10:01.658Z,984.07
2023-05-10T04:11:01.651Z,984.07
2023-05-10T04:12:01.648Z,984.10
2023-05-10T04:13:01.651Z,984.08
2023-05-10T04:14:01.636Z,984.03
2023-05-10T04:15:01.622Z,984.03
2023-05-10T04:16:01.633Z,984.05
2023-05-10T04:17:02.246Z,984.03
2023-05-10T04:18:01.632Z,984.02
2023-05-10T04:19:02.189Z,984.02
2023-05-10T04:20:01.578Z,984.01
2023-05-10T04:21:01.567Z,983.99
2023-05-10T04:22:01.555Z,984.01
2023-05-10T04:23:01.561Z,984.02
2023-05-10T04:24:01.570Z,984.02
2023-05-10T04:25:01.559Z,984.02
2023-05-10T04:26:01.574Z,984.01
2023-05-10T04:27:01.530Z,984.01
2023-05-10T04:28:01.521Z,984.00
2023-05-10T04:29:01.494Z,984.04
2023-05-10T04:30:01.563Z,984.06
2023-05-10T04:31:01.561Z,984.05
2023-05-10T04:32:01.483Z,984.05
2023-05-10T04:33:01.493Z,984.05
2023-05-10T04:34:01.474Z,984.06
2023-05-10T04:35:01.442Z,984.02
2023-05-10T04:36:01.437Z,984.05
2023-05-10T04:37:01.422Z,984.05
2023-05-10T04:38:01.436Z,984.05
2023-05-10T04:39:01.403Z,984.03
2023-05-10T04:40:01.416Z,984.03
2023-05-10T04:41:01.392Z,984.04
2023-05-10T04:42:01.395Z,984.05
2023-05-10T04:43:01.384Z,984.03
2023-05-10T04:44:01.362Z,984.01
2023-05-10T04:45:01.360Z,984.01
2023-05-10T04:46:01.386Z,984.02
2023-05-10T04:47:01.344Z,984.03
2023-05-10T04:48:01.435Z,984.00
2023-05-10T04:49:01.342Z,984.03
2023-05-10T04:50:01.316Z,984.02
2023-05-10T04:51:01.329Z,984.02
2023-05-10T04:52:01.315Z,984.04
2023-05-10T04:53:01.290Z,984.04
2023-05-10T04:54:06.411Z,984.03
2023-05-10T04:55:01.280Z,984.02
2023-05-10T04:56:01.304Z,984.03
2023-05-10T04:57:01.261Z,984.09
2023-05-10T04:58:01.261Z,984.09
2023-05-10T04:59:01.494Z,984.08
2023-05-10T05:00:01.261Z,984.06
2023-05-10T05:01:01.229Z,984.06
2023-05-10T05:02:01.284Z,984.08
2023-05-10T05:03:01.331Z,984.08
2023-05-10T05:04:01.282Z,984.10
2023-05-10T05:05:01.406Z,984.12
2023-05-10T05:06:01.207Z,984.12
2023-05-10T05:07:01.182Z,984.14
2023-05-10T05:08:01.194Z,984.15
2023-05-10T05:09:01.163Z,984.19
2023-05-10T05:10:01.194Z,984.18
2023-05-10T05:11:01.207Z,984.16
2023-05-10T05:12:01.165Z,984.22
2023-05-10T05:13:01.141Z,984.21
2023-05-10T05:14:01.124Z,984.20
2023-05-10T05:15:01.115Z,984.18
2023-05-10T05:16:01.177Z,984.21
2023-05-10T05:17:01.126Z,984.23
2023-05-10T05:18:01.187Z,984.24
2023-05-10T05:19:01.084Z,984.23
2023-05-10T05:20:01.116Z,984.28
2023-05-10T05:21:01.102Z,984.28
2023-05-10T05:22:01.050Z,984.27
2023-05-10T05:23:01.049Z,984.33
2023-05-10T05:24:01.034Z,984.33
2023-05-10T05:25:01.013Z,984.32
2023-05-10T05:26:01.008Z,984.28
2023-05-10T05:27:01.010Z,984.32
2023-05-10T05:28:01.024Z,984.31
2023-05-10T05:29:01.021Z,984.32
2023-05-10T05:30:01.001Z,984.36
2023-05-10T05:31:00.989Z,984.36
2023-05-10T05:32:01.022Z,984.38
2023-05-10T05:33:01.008Z,984.37
2023-05-10T05:34:00.950Z,984.39
2023-05-10T05:35:00.941Z,984.38
2023-05-10T05:36:00.947Z,984.38
2023-05-10T05:37:00.930Z,984.35
2023-05-10T05:38:00.900Z,984.35
2023-05-10T05:39:00.906Z,984.37
2023-05-10T05:40:00.912Z,984.39
2023-05-10T05:41:00.907Z,984.39
2023-05-10T05:42:00.896Z,984.40
2023-05-10T05:43:01.080Z,984.41
2023-05-10T05:44:01.096Z,984.42
2023-05-10T05:45:00.887Z,984.45
2023-05-10T05:46:00.873Z,984.42
2023-05-10T05:47:00.849Z,984.43
2023-05-10T05:48:00.913Z,984.48
2023-05-10T05:49:00.853Z,984.52
2023-05-10T05:50:00.843Z,984.49
2023-05-10T05:51:00.808Z,984.51
2023-05-10T05:52:00.798Z,984.49
2023-05-10T05:53:00.774Z,984.51
2023-05-10T05:54:00.771Z,984.51
2023-05-10T05:55:00.762Z,984.53
2023-05-10T05:56:00.790Z,984.59
2023-05-10T05:57:01.476Z,984.56
2023-05-10T05:58:00.747Z,984.56
2023-05-10T05:59:00.735Z,984.56
2023-05-10T06:00:00.763Z,984.59
2023-05-10T06:01:00.741Z,984.65
2023-05-10T06:02:00.761Z,984.60
2023-05-10T06:03:00.931Z,984.65
2023-05-10T06:04:00.818Z,984.63
2023-05-10T06:05:00.702Z,984.63
2023-05-10T06:06:00.672Z,984.65
2023-05-10T06:07:00.683Z,984.66
2023-05-10T06:08:00.670Z,984.67
2023-05-10T06:09:00.681Z,984.70
2023-05-10T06:10:00.653Z,984.72
2023-05-10T06:11:00.665Z,984.75
2023-05-10T06:12:00.652Z,984.72
2023-05-10T06:13:00.652Z,984.76
2023-05-10T06:14:00.616Z,984.76
2023-05-10T06:15:00.614Z,984.81
2023-05-10T06:16:00.640Z,984.83
2023-05-10T06:17:00.794Z,984.84
2023-05-10T06:18:00.658Z,984.84
2023-05-10T06:19:00.588Z,984.83
2023-05-10T06:20:00.568Z,984.86
2023-05-10T06:21:00.570Z,984.83
2023-05-10T06:22:00.573Z,984.82
2023-05-10T06:23:00.550Z,984.82
2023-05-10T06:24:00.547Z,984.87
2023-05-10T06:25:00.538Z,984.86
2023-05-10T06:26:00.530Z,984.84
2023-05-10T06:27:00.525Z,984.90
2023-05-10T06:28:00.530Z,984.88
2023-05-10T06:29:00.698Z,984.89
2023-05-10T06:30:11.797Z,984.94
2023-05-10T06:31:00.508Z,984.95
2023-05-10T06:32:00.473Z,984.94
2023-05-10T06:33:00.495Z,984.96
2023-05-10T06:34:00.442Z,984.95
2023-05-10T06:35:00.444Z,984.98
2023-05-10T06:36:00.471Z,985.00
2023-05-10T06:37:00.429Z,984.98
2023-05-10T06:38:00.412Z,984.99
2023-05-10T06:39:00.600Z,984.97
2023-05-10T06:40:00.443Z,984.98
2023-05-10T06:41:00.388Z,984.99
2023-05-10T06:42:00.444Z,985.01
2023-05-10T06:43:00.397Z,985.04
2023-05-10T06:44:00.364Z,985.03
2023-05-10T06:45:00.357Z,985.06
2023-05-10T06:46:00.427Z,985.07
2023-05-10T06:47:00.358Z,985.09
2023-05-10T06:48:00.436Z,985.08
2023-05-10T06:49:00.352Z,985.13
2023-05-10T06:50:00.351Z,985.10
2023-05-10T06:51:00.341Z,985.11
2023-05-10T06:52:00.299Z,985.13
2023-05-10T06:53:00.339Z,985.14
2023-05-10T06:54:00.490Z,985.18
2023-05-10T06:55:00.298Z,985.20
2023-05-10T06:56:00.487Z,985.22
2023-05-10T06:57:01.839Z,985.25
2023-05-10T06:58:00.257Z,985.19
2023-05-10T06:59:00.419Z,985.24
2023-05-10T07:00:00.475Z,985.24
2023-05-10T07:01:00.356Z,985.27
2023-05-10T07:02:00.270Z,985.30
2023-05-10T07:03:00.324Z,985.30
2023-05-10T07:04:00.232Z,985.30
2023-05-10T07:05:02.747Z,985.28
2023-05-10T07:06:00.172Z,985.31
2023-05-10T07:07:00.200Z,985.33
2023-05-10T07:08:00.168Z,985.29
2023-05-10T07:09:00.193Z,985.32
2023-05-10T07:10:00.254Z,985.33
2023-05-10T07:11:00.158Z,985.34
2023-05-10T07:12:00.151Z,985.35
2023-05-10T07:13:00.259Z,985.33
2023-05-10T07:14:00.177Z,985.37
2023-05-10T07:15:00.171Z,985.37
2023-05-10T07:16:00.249Z,985.39
2023-05-10T07:17:00.179Z,985.40
2023-05-10T07:18:00.353Z,985.39
2023-05-10T07:19:00.281Z,985.38
2023-05-10T07:20:00.120Z,985.34
2023-05-10T07:21:00.077Z,985.33
2023-05-10T07:22:00.067Z,985.37
2023-05-10T07:23:00.057Z,985.35
2023-05-10T07:24:00.096Z,985.34
2023-05-10T07:25:00.312Z,985.34
2023-05-10T07:26:00.051Z,985.33
2023-05-10T07:27:00.075Z,985.36
2023-05-10T07:28:00.028Z,985.38
2023-05-10T07:29:00.030Z,985.35
2023-05-10T07:30:00.006Z,985.37
2023-05-10T07:31:00.037Z,985.34
2023-05-10T07:31:59.992Z,985.39
2023-05-10T07:33:00.006Z,985.39
2023-05-10T07:33:59.949Z,985.37
2023-05-10T07:34:59.977Z,985.37
2023-05-10T07:35:59.950Z,985.40
2023-05-10T07:36:59.938Z,985.39
2023-05-10T07:38:00.215Z,985.46
2023-05-10T07:38:59.931Z,985.46
2023-05-10T07:40:00.236Z,985.47
2023-05-10T07:40:59.901Z,985.44
2023-05-10T07:41:59.879Z,985.49
2023-05-10T07:42:59.889Z,985.51
2023-05-10T07:43:59.886Z,985.54
2023-05-10T07:45:00.149Z,985.50
2023-05-10T07:45:59.880Z,985.52
2023-05-10T07:46:59.848Z,985.51
2023-05-10T07:47:59.914Z,985.51
2023-05-10T07:48:59.826Z,985.50
2023-05-10T07:49:59.824Z,985.51
2023-05-10T07:50:59.807Z,985.54
2023-05-10T07:51:59.837Z,985.57
2023-05-10T07:52:59.785Z,985.52
2023-05-10T07:53:59.780Z,985.56
2023-05-10T07:54:59.978Z,985.57
2023-05-10T07:55:59.771Z,985.54
2023-05-10T07:56:59.757Z,985.55
2023-05-10T07:57:59.750Z,985.59
2023-05-10T07:58:59.740Z,985.59
2023-05-10T07:59:59.784Z,985.60
2023-05-10T08:00:59.720Z,985.64
2023-05-10T08:01:59.746Z,985.59
2023-05-10T08:02:59.898Z,985.63
2023-05-10T08:03:59.775Z,985.63
2023-05-10T08:04:59.690Z,985.61
2023-05-10T08:05:59.712Z,985.67
2023-05-10T08:06:59.676Z,985.65
2023-05-10T08:07:59.687Z,985.65
2023-05-10T08:08:59.892Z,985.67
2023-05-10T08:09:59.698Z,985.68
2023-05-10T08:10:59.674Z,985.70
2023-05-10T08:11:59.701Z,985.73
2023-05-10T08:12:59.634Z,985.73
2023-05-10T08:13:59.660Z,985.76
2023-05-10T08:14:59.678Z,985.74
2023-05-10T08:15:59.647Z,985.76
2023-05-10T08:16:59.598Z,985.75
2023-05-10T08:17:59.649Z,985.76
2023-05-10T08:18:59.814Z,985.77
2023-05-10T08:19:59.574Z,985.80
2023-05-10T08:20:59.558Z,985.82
2023-05-10T08:21:59.562Z,985.81
2023-05-10T08:22:59.626Z,985.83
2023-05-10T08:23:59.568Z,985.87
2023-05-10T08:24:59.550Z,985.85
2023-05-10T08:25:59.521Z,985.85
2023-05-10T08:26:59.518Z,985.86
2023-05-10T08:27:59.529Z,985.82
2023-05-10T08:28:59.517Z,985.85
2023-05-10T08:29:59.538Z,985.87
2023-05-10T08:30:59.742Z,985.83
2023-05-10T08:31:59.504Z,985.88
2023-05-10T08:32:59.522Z,985.84
2023-05-10T08:33:59.456Z,985.85
2023-05-10T08:34:59.513Z,985.86
2023-05-10T08:35:59.445Z,985.89
2023-05-10T08:36:59.438Z,985.85
2023-05-10T08:37:59.433Z,985.86
2023-05-10T08:38:59.421Z,985.88
2023-05-10T08:39:59.463Z,985.84
2023-05-10T08:40:59.481Z,985.82
2023-05-10T08:41:59.396Z,985.90
2023-05-10T08:42:59.401Z,985.89
2023-05-10T08:43:59.387Z,985.90
2023-05-10T08:44:59.387Z,985.89
2023-05-10T08:45:59.572Z,985.89
2023-05-10T08:46:59.409Z,985.89
2023-05-10T08:47:59.392Z,985.94
2023-05-10T08:48:59.367Z,985.92
2023-05-10T08:49:59.369Z,985.93
2023-05-10T08:50:59.541Z,985.98
2023-05-10T08:51:59.319Z,985.95
2023-05-10T08:52:59.368Z,985.99
2023-05-10T08:53:59.322Z,985.98
2023-05-10T08:54:59.329Z,986.00
2023-05-10T08:55:59.370Z,986.02
2023-05-10T08:56:59.324Z,986.02
2023-05-10T08:57:59.307Z,986.03
2023-05-10T08:58:59.301Z,986.01
2023-05-10T08:59:59.285Z,986.00
2023-05-10T09:00:59.367Z,986.02
2023-05-10T09:01:59.274Z,986.07
2023-05-10T09:02:59.305Z,986.04
2023-05-10T09:03:59.375Z,986.07
2023-05-10T09:04:59.340Z,986.04
2023-05-10T09:05:59.244Z,986.07
2023-05-10T09:06:59.252Z,986.09
2023-05-10T09:07:59.210Z,986.10
2023-05-10T09:08:59.230Z,986.09
2023-05-10T09:09:59.210Z,986.11
2023-05-10T09:10:59.198Z,986.11
2023-05-10T09:11:59.216Z,986.12
2023-05-10T09:12:59.623Z,986.14
2023-05-10T09:13:59.224Z,986.14
2023-05-10T09:14:59.179Z,986.17
2023-05-10T09:16:06.981Z,986.20
2023-05-10T09:16:59.215Z,986.22
2023-05-10T09:17:59.185Z,986.24
2023-05-10T09:18:59.173Z,986.22
2023-05-10T09:19:59.202Z,986.23
2023-05-10T09:20:59.119Z,986.20
2023-05-10T09:21:59.136Z,986.27
2023-05-10T09:22:59.146Z,986.27
2023-05-10T09:23:59.092Z,986.29
2023-05-10T09:24:59.085Z,986.23
2023-05-10T09:25:59.068Z,986.30
2023-05-10T09:26:59.074Z,986.28
2023-05-10T09:27:59.094Z,986.30
2023-05-10T09:28:59.275Z,986.27
2023-05-10T09:29:59.053Z,986.28
2023-05-10T09:30:59.108Z,986.30
2023-05-10T09:31:59.040Z,986.33
2023-05-10T09:32:59.137Z,986.34
2023-05-10T09:33:59.045Z,986.31
2023-05-10T09:34:59.032Z,986.36
2023-05-10T09:35:59.057Z,986.36
2023-05-10T09:36:59.068Z,986.32
2023-05-10T09:37:58.998Z,986.32
2023-05-10T09:38:59.007Z,986.32
2023-05-10T09:39:58.990Z,986.31
2023-05-10T09:40:58.983Z,986.37
2023-05-10T09:41:58.990Z,986.35
2023-05-10T09:42:58.976Z,986.36
2023-05-10T09:43:59.182Z,986.36
2023-05-10T09:44:58.935Z,986.40
2023-05-10T09:45:58.982Z,986.38
2023-05-10T09:46:58.936Z,986.37
2023-05-10T09:47:59.023Z,986.35
2023-05-10T09:48:58.921Z,986.39
2023-05-10T09:49:58.902Z,986.39
2023-05-10T09:50:58.882Z,986.41
2023-05-10T09:51:59.077Z,986.42
2023-05-10T09:52:58.891Z,986.43
2023-05-10T09:53:58.882Z,986.44
2023-05-10T09:54:58.914Z,986.42
2023-05-10T09:55:58.869Z,986.40
2023-05-10T09:56:58.860Z,986.41
2023-05-10T09:57:58.850Z,986.44
2023-05-10T09:58:58.849Z,986.42
2023-05-10T09:59:58.873Z,986.46
2023-05-10T10:00:58.825Z,986.41
2023-05-10T10:01:58.963Z,986.41
2023-05-10T10:02:59.049Z,986.45
2023-05-10T10:03:58.819Z,986.40
2023-05-10T10:04:58.915Z,986.41
2023-05-10T10:05:58.840Z,986.42
2023-05-10T10:06:58.789Z,986.48
2023-05-10T10:07:58.800Z,986.44
2023-05-10T10:08:58.835Z,986.44
2023-05-10T10:09:58.753Z,986.45
2023-05-10T10:10:58.791Z,986.48
2023-05-10T10:11:58.772Z,986.43
2023-05-10T10:12:58.730Z,986.44
2023-05-10T10:13:58.767Z,986.43
2023-05-10T10:14:58.778Z,986.43
2023-05-10T10:15:58.767Z,986.46
2023-05-10T10:17:06.770Z,986.42
2023-05-10T10:17:58.730Z,986.42
2023-05-10T10:18:58.791Z,986.43
2023-05-10T10:19:58.706Z,986.44
2023-05-10T10:20:58.710Z,986.47
2023-05-10T10:21:58.694Z,986.43
2023-05-10T10:22:58.719Z,986.43
2023-05-10T10:23:58.665Z,986.38
2023-05-10T10:24:58.675Z,986.45
2023-05-10T10:25:58.706Z,986.43
2023-05-10T10:26:58.638Z,986.41
2023-05-10T10:27:58.680Z,986.40
2023-05-10T10:28:58.678Z,986.43
2023-05-10T10:29:58.658Z,986.42
2023-05-10T10:30:58.718Z,986.44
2023-05-10T10:31:58.826Z,986.41
2023-05-10T10:32:58.643Z,986.40
2023-05-10T10:33:58.621Z,986.40
2023-05-10T10:34:58.594Z,986.40
2023-05-10T10:35:58.623Z,986.42
2023-05-10T10:36:58.608Z,986.42
2023-05-10T10:37:58.589Z,986.47
2023-05-10T10:38:58.582Z,986.41
2023-05-10T10:39:58.580Z,986.41
2023-05-10T10:40:58.572Z,986.44
2023-05-10T10:41:58.669Z,986.39
2023-05-10T10:42:58.553Z,986.44
2023-05-10T10:43:58.527Z,986.45
2023-05-10T10:44:58.519Z,986.45
2023-05-10T10:45:58.566Z,986.45
2023-05-10T10:46:58.556Z,986.50
2023-05-10T10:47:58.553Z,986.51
2023-05-10T10:48:58.608Z,986.50
2023-05-10T10:49:58.552Z,986.52
2023-05-10T10:50:58.488Z,986.52
2023-05-10T10:51:58.513Z,986.52
2023-05-10T10:52:58.521Z,986.53
2023-05-10T10:53:58.451Z,986.53
2023-05-10T10:54:58.436Z,986.56
2023-05-10T10:55:58.494Z,986.54
2023-05-10T10:56:58.425Z,986.54
2023-05-10T10:57:58.463Z,986.54
2023-05-10T10:58:58.411Z,986.55
2023-05-10T10:59:58.427Z,986.58
2023-05-10T11:00:58.617Z,986.56
2023-05-10T11:01:58.405Z,986.58
2023-05-10T11:02:58.413Z,986.56
2023-05-10T11:03:58.435Z,986.57
2023-05-10T11:04:58.389Z,986.59
2023-05-10T11:05:58.378Z,986.52
2023-05-10T11:06:58.374Z,986.56
2023-05-10T11:07:58.408Z,986.53
2023-05-10T11:08:58.389Z,986.52
2023-05-10T11:09:58.365Z,986.49
2023-05-10T11:10:58.413Z,986.52
2023-05-10T11:11:58.327Z,986.49
2023-05-10T11:12:58.374Z,986.48
2023-05-10T11:13:58.318Z,986.52
2023-05-10T11:14:58.345Z,986.57
2023-05-10T11:15:58.344Z,986.63
2023-05-10T11:16:58.405Z,986.64
2023-05-10T11:17:58.344Z,986.68
2023-05-10T11:18:58.350Z,986.66
2023-05-10T11:19:58.309Z,986.69
2023-05-10T11:20:58.267Z,986.65
2023-05-10T11:21:58.286Z,986.73
2023-05-10T11:22:58.275Z,986.71
2023-05-10T11:23:58.295Z,986.73
2023-05-10T11:24:58.228Z,986.77
2023-05-10T11:25:58.226Z,986.75
2023-05-10T11:26:58.220Z,986.78
2023-05-10T11:27:58.245Z,986.74
2023-05-10T11:28:58.201Z,986.73
2023-05-10T11:29:58.194Z,986.74
2023-05-10T11:30:58.271Z,986.77
2023-05-10T11:31:58.217Z,986.78
2023-05-10T11:32:58.244Z,986.78
2023-05-10T11:33:58.173Z,986.77
2023-05-10T11:34:58.214Z,986.78
2023-05-10T11:35:58.181Z,986.80
2023-05-10T11:36:58.148Z,986.77
2023-05-10T11:37:58.164Z,986.83
2023-05-10T11:38:58.255Z,986.81
2023-05-10T11:39:58.161Z,986.81
2023-05-10T11:40:58.133Z,986.85
2023-05-10T11:41:58.121Z,986.83
2023-05-10T11:42:58.127Z,986.82
2023-05-10T11:43:58.116Z,986.85
2023-05-10T11:44:58.137Z,986.83
2023-05-10T11:45:58.112Z,986.87
2023-05-10T11:46:58.125Z,986.82
2023-05-10T11:47:58.163Z,986.86
2023-05-10T11:48:58.143Z,986.86
2023-05-10T11:49:58.105Z,986.86
2023-05-10T11:50:58.106Z,986.88
2023-05-10T11:51:58.086Z,986.89
2023-05-10T11:52:58.074Z,986.93
2023-05-10T11:53:58.316Z,986.91
2023-05-10T11:54:58.029Z,986.94
2023-05-10T11:55:58.040Z,986.96
2023-05-10T11:56:58.066Z,986.95
2023-05-10T11:57:58.031Z,987.00
2023-05-10T11:58:58.141Z,987.00
2023-05-10T11:59:57.995Z,987.00
2023-05-10T12:00:58.090Z,987.00
2023-05-10T12:01:58.224Z,987.01
2023-05-10T12:02:58.082Z,987.01
2023-05-10T12:03:58.221Z,987.02
2023-05-10T12:04:58.140Z,986.97
2023-05-10T12:05:57.970Z,987.01
2023-05-10T12:06:57.978Z,987.00
2023-05-10T12:07:58.076Z,987.01
2023-05-10T12:08:58.039Z,987.05
2023-05-10T12:09:58.010Z,987.05
2023-05-10T12:10:57.929Z,987.07
2023-05-10T12:11:57.922Z,987.05
2023-05-10T12:12:57.906Z,987.08
2023-05-10T12:13:58.115Z,987.08
2023-05-10T12:14:57.931Z,987.10
2023-05-10T12:15:57.968Z,987.11
2023-05-10T12:16:57.911Z,987.11
2023-05-10T12:17:57.919Z,987.12
2023-05-10T12:18:58.230Z,987.11
2023-05-10T12:19:57.864Z,987.13
2023-05-10T12:20:57.892Z,987.14
2023-05-10T12:21:57.872Z,987.12
2023-05-10T12:23:00.231Z,987.11
2023-05-10T12:23:57.880Z,987.14
2023-05-10T12:24:57.839Z,987.18
2023-05-10T12:25:57.842Z,987.16
2023-05-10T12:26:57.815Z,987.18
2023-05-10T12:27:57.809Z,987.16